Time;durP1;ratioP1;P1;durP2;ratioP2;P2;SDS_P1;SDS_P2;PMS_P1;PMS_P2;Temp;Humidity;BMP_temperature;BMP_pressure;BME280_temperature;BME280_humidity;BME280_pressure;Samples;Min_cycle;Max_cycle;Signal;HPM_P1;HPM_P2
2023/01/15 00:01:30;;;;;;;3.13;1.10;;;29.10;91.80;;;;;;5114588;28;20424;-84
2023/01/15 00:03:58;;;;;;;2.47;0.93;;;29.10;91.40;;;;;;5115381;28;20700;-83
2023/01/15 00:06:27;;;;;;;4.93;1.15;;;29.40;91.30;;;;;;5114418;28;20417;-83
2023/01/15 00:08:54;;;;;;;119.97;9.05;;;29.50;90.40;;;;;;5114210;28;20370;-83
2023/01/15 00:11:22;;;;;;;82.10;6.93;;;29.70;90.30;;;;;;5114083;28;20390;-83
2023/01/15 00:13:50;;;;;;;6.10;1.10;;;30.00;90.10;;;;;;5114680;28;20367;-83
2023/01/15 00:16:22;;;;;;;3.47;1.10;;;30.30;87.40;;;;;;5114007;28;20366;-83
2023/01/15 00:18:54;;;;;;;3.67;1.00;;;30.10;86.20;;;;;;5113835;28;20395;-83
2023/01/15 00:21:22;;;;;;;2.13;0.82;;;29.90;86.60;;;;;;5114080;27;20363;-83
2023/01/15 00:29:22;;;;;;;1.98;0.88;;;30.10;87.30;;;;;;5114373;28;20765;-83
2023/01/15 00:31:56;;;;;;;5.40;1.00;;;30.50;84.50;;;;;;5112474;28;20816;-83
2023/01/15 00:34:24;;;;;;;1.98;1.00;;;30.60;83.70;;;;;;5114039;28;20374;-83
2023/01/15 00:36:51;;;;;;;2.78;1.00;;;30.90;82.40;;;;;;5113686;27;20363;-83
2023/01/15 00:39:18;;;;;;;2.73;1.00;;;30.60;81.50;;;;;;5113567;28;20409;-83
2023/01/15 00:41:45;;;;;;;2.53;0.95;;;30.50;81.70;;;;;;5113544;28;20838;-84
2023/01/15 00:44:13;;;;;;;2.57;1.00;;;30.90;81.30;;;;;;5113229;28;20398;-83
2023/01/15 00:46:40;;;;;;;3.25;1.00;;;31.10;81.10;;;;;;5113356;28;20727;-83
2023/01/15 00:49:06;;;;;;;3.47;1.05;;;31.40;81.60;;;;;;5113385;27;20382;-84
2023/01/15 00:51:34;;;;;;;2.40;1.00;;;31.30;81.00;;;;;;5113398;28;20371;-83
2023/01/15 00:54:01;;;;;;;2.30;0.95;;;31.30;79.40;;;;;;5113449;27;20375;-83
2023/01/15 00:56:28;;;;;;;2.08;1.10;;;31.10;80.40;;;;;;5113641;28;20726;-83
2023/01/15 00:58:56;;;;;;;2.58;0.90;;;30.90;79.80;;;;;;5113379;28;20481;-83
2023/01/15 01:01:23;;;;;;;3.08;1.05;;;30.90;78.40;;;;;;5113338;28;20839;-83
2023/01/15 01:03:51;;;;;;;2.65;1.00;;;30.90;80.10;;;;;;5113242;28;20363;-83
2023/01/15 01:06:20;;;;;;;3.33;1.05;;;30.80;78.50;;;;;;5113246;28;20374;-83
2023/01/15 01:08:47;;;;;;;2.85;1.02;;;30.50;80.10;;;;;;5113493;28;20454;-83
2023/01/15 01:11:19;;;;;;;2.50;0.93;;;30.50;79.60;;;;;;5113112;28;20367;-83
2023/01/15 01:13:47;;;;;;;2.67;1.10;;;31.10;79.70;;;;;;5113189;28;20366;-83
2023/01/15 01:16:36;;;;;;;2.30;1.10;;;31.70;77.00;;;;;;5113058;28;20375;-82
2023/01/15 01:19:07;;;;;;;1.98;1.00;;;31.80;76.20;;;;;;5112864;28;20481;-85
2023/01/15 01:21:36;;;;;;;2.13;0.90;;;32.40;74.40;;;;;;5112321;28;20366;-83
2023/01/15 01:24:03;;;;;;;2.20;1.10;;;33.00;72.50;;;;;;5113187;28;20858;-82
2023/01/15 01:26:30;;;;;;;3.30;1.25;;;33.40;71.20;;;;;;5112895;28;20362;-84
2023/01/15 01:28:57;;;;;;;2.92;1.20;;;33.50;71.40;;;;;;5112755;28;20783;-83
2023/01/15 01:31:25;;;;;;;2.53;1.13;;;33.70;69.60;;;;;;5112646;28;20399;-85
2023/01/15 01:33:54;;;;;;;3.15;1.17;;;34.00;69.60;;;;;;5111447;28;20383;-84
2023/01/15 01:36:32;;;;;;;1.95;1.15;;;34.00;67.30;;;;;;5112596;28;20375;-85
2023/01/15 01:38:59;;;;;;;3.03;1.17;;;33.70;67.50;;;;;;5112555;28;20430;-83
2023/01/15 01:41:30;;;;;;;3.47;1.30;;;34.00;68.00;;;;;;5111696;28;20491;-83
2023/01/15 01:44:03;;;;;;;3.00;1.30;;;34.10;67.20;;;;;;5111101;28;20394;-83
2023/01/15 01:46:33;;;;;;;2.78;1.10;;;34.30;68.10;;;;;;5112851;28;20367;-83
2023/01/15 01:49:12;;;;;;;2.88;1.10;;;34.70;65.50;;;;;;5112488;28;20911;-83
2023/01/15 01:51:49;;;;;;;1.73;1.10;;;34.80;66.80;;;;;;5112510;28;20367;-83
2023/01/15 01:54:19;;;;;;;4.82;2.85;;;34.60;66.10;;;;;;5112664;28;20359;-82
2023/01/15 01:56:49;;;;;;;2.53;1.45;;;34.60;66.80;;;;;;5112365;28;20371;-82
2023/01/15 01:59:18;;;;;;;3.30;1.13;;;34.70;65.00;;;;;;5112269;28;20455;-83
2023/01/15 02:01:46;;;;;;;2.17;1.10;;;34.60;63.70;;;;;;5112344;28;20363;-82
2023/01/15 02:04:13;;;;;;;3.40;1.48;;;34.90;64.30;;;;;;5112284;28;20382;-83
2023/01/15 02:06:41;;;;;;;1.70;0.98;;;35.30;62.80;;;;;;5112272;28;20722;-83
2023/01/15 02:09:08;;;;;;;4.50;1.48;;;35.50;64.50;;;;;;5112191;28;20398;-85
2023/01/15 02:11:36;;;;;;;2.50;1.30;;;36.00;63.10;;;;;;5112181;28;20903;-83
2023/01/15 02:14:16;;;;;;;2.80;1.10;;;36.20;62.70;;;;;;5112295;28;20790;-84
2023/01/15 02:16:47;;;;;;;2.30;1.20;;;36.60;61.80;;;;;;5112996;28;20389;-83
2023/01/15 02:19:34;;;;;;;1.58;1.13;;;36.70;60.20;;;;;;5112552;28;20385;-82
2023/01/15 02:22:32;;;;;;;2.33;1.20;;;37.10;58.20;;;;;;5112650;28;20406;-83
2023/01/15 02:25:08;;;;;;;3.55;1.13;;;37.50;57.30;;;;;;5112225;28;20835;-84
2023/01/15 02:27:38;;;;;;;2.22;1.30;;;38.30;56.70;;;;;;5112033;28;20409;-82
2023/01/15 02:30:31;;;;;;;1.60;1.20;;;38.30;56.30;;;;;;5112100;28;20363;-83
2023/01/15 02:33:25;;;;;;;2.60;1.25;;;38.40;55.00;;;;;;5114579;28;20438;-81
2023/01/15 02:36:05;;;;;;;3.33;1.20;;;38.20;55.00;;;;;;5111834;28;20457;-82
2023/01/15 02:38:37;;;;;;;4.22;1.30;;;38.40;55.80;;;;;;5116364;28;20435;-82
2023/01/15 02:41:14;;;;;;;3.50;1.20;;;37.80;54.50;;;;;;5116121;28;20703;-82
2023/01/15 02:43:52;;;;;;;3.28;1.30;;;37.40;56.30;;;;;;5115553;28;20391;-81
2023/01/15 02:46:23;;;;;;;2.60;1.20;;;38.00;56.50;;;;;;5115775;28;20422;-82
2023/01/15 02:48:54;;;;;;;2.55;1.25;;;38.50;54.20;;;;;;5116045;28;20356;-82
2023/01/15 02:51:27;;;;;;;2.75;1.20;;;39.20;53.60;;;;;;5114470;28;20720;-83
2023/01/15 02:53:58;;;;;;;3.97;1.40;;;39.10;52.50;;;;;;5115983;28;20387;-83
2023/01/15 02:56:29;;;;;;;3.40;1.15;;;38.30;53.20;;;;;;5115900;28;20366;-83
2023/01/15 02:59:01;;;;;;;3.60;1.40;;;37.70;55.20;;;;;;5115417;27;20383;-82
2023/01/15 03:01:37;;;;;;;2.67;1.10;;;37.90;54.50;;;;;;5115625;28;20363;-83
2023/01/15 03:04:21;;;;;;;2.63;1.20;;;38.10;54.30;;;;;;5115332;28;20356;-85
2023/01/15 03:07:06;;;;;;;2.15;1.30;;;39.00;53.40;;;;;;5115369;28;20398;-83
2023/01/15 03:09:34;;;;;;;2.70;1.30;;;39.80;52.80;;;;;;5115341;28;20487;-83
2023/01/15 03:12:07;;;;;;;2.70;1.20;;;40.40;52.70;;;;;;5114057;28;20363;-86
2023/01/15 03:14:47;;;;;;;2.88;1.20;;;41.10;50.90;;;;;;5114071;28;20740;-83
2023/01/15 03:17:21;;;;;;;2.45;1.38;;;41.10;49.50;;;;;;5115364;28;20834;-81
2023/01/15 03:19:54;;;;;;;3.20;1.30;;;40.90;49.90;;;;;;5115223;28;20403;-84
2023/01/15 03:22:35;;;;;;;2.47;1.20;;;40.90;49.80;;;;;;5115341;28;20860;-84
2023/01/15 03:25:15;;;;;;;3.42;1.27;;;40.40;49.50;;;;;;5115331;28;20385;-86
2023/01/15 03:27:42;;;;;;;2.78;1.40;;;40.60;49.40;;;;;;5115149;27;20492;-86
2023/01/15 03:30:16;;;;;;;2.88;1.45;;;40.50;48.80;;;;;;5114969;28;20381;-86
2023/01/15 03:32:43;;;;;;;3.42;1.30;;;39.80;50.30;;;;;;5114108;28;20893;-85
2023/01/15 03:35:45;;;;;;;2.15;1.20;;;39.40;50.30;;;;;;5115248;28;20377;-85
2023/01/15 03:38:14;;;;;;;1.83;1.30;;;39.40;50.60;;;;;;5072969;28;20405;-86
2023/01/15 03:41:10;;;;;;;3.70;1.48;;;39.50;50.70;;;;;;5072317;28;20409;-86
2023/01/15 03:43:43;;;;;;;1.90;1.20;;;39.80;48.90;;;;;;5069561;28;20421;-86
2023/01/15 03:46:35;;;;;;;2.05;1.55;;;39.40;50.80;;;;;;5072614;28;20449;-85
2023/01/15 03:49:12;;;;;;;2.47;1.50;;;39.70;49.30;;;;;;5072528;28;20377;-86
2023/01/15 03:51:51;;;;;;;2.65;1.40;;;39.70;50.50;;;;;;5072562;28;20370;-85
2023/01/15 03:54:33;;;;;;;2.88;1.50;;;39.80;50.00;;;;;;5072428;28;20854;-86
2023/01/15 03:57:26;;;;;;;4.53;1.70;;;39.80;49.60;;;;;;5071808;28;20812;-84
2023/01/15 03:59:58;;;;;;;3.20;1.85;;;40.10;49.60;;;;;;5071708;28;20410;-84
2023/01/15 04:02:28;;;;;;;3.30;1.70;;;40.80;48.50;;;;;;5071839;28;20392;-85
2023/01/15 04:04:57;;;;;;;2.78;1.60;;;41.20;47.80;;;;;;5071660;28;20527;-85
2023/01/15 04:07:25;;;;;;;2.80;1.65;;;41.50;47.00;;;;;;5071728;28;20782;-86
2023/01/15 04:09:53;;;;;;;2.72;1.60;;;41.60;46.90;;;;;;5072161;28;20545;-88
2023/01/15 04:12:20;;;;;;;2.20;1.45;;;42.00;46.50;;;;;;5071771;28;20382;-88
2023/01/15 04:14:47;;;;;;;3.90;1.58;;;42.30;46.80;;;;;;5089283;28;20375;-87
2023/01/15 04:17:14;;;;;;;3.90;1.80;;;42.90;45.90;;;;;;5115023;28;20401;-87
2023/01/15 04:19:43;;;;;;;3.20;1.52;;;42.30;46.90;;;;;;5116078;28;20389;-87
2023/01/15 04:22:11;;;;;;;3.08;1.60;;;42.40;49.00;;;;;;5115691;28;20382;-86
2023/01/15 04:24:38;;;;;;;2.87;1.43;;;42.30;48.60;;;;;;5114461;28;20412;-89
2023/01/15 04:27:05;;;;;;;3.00;1.37;;;42.70;48.20;;;;;;5114917;28;20457;-88
2023/01/15 04:29:32;;;;;;;6.00;1.45;;;42.70;48.00;;;;;;5114865;28;20358;-92
2023/01/15 04:31:59;;;;;;;3.38;1.23;;;42.70;49.40;;;;;;5114027;28;20819;-85
2023/01/15 04:34:27;;;;;;;3.10;1.33;;;42.70;48.90;;;;;;5113936;28;20381;-89
2023/01/15 04:36:55;;;;;;;3.53;1.20;;;42.70;49.70;;;;;;5114720;28;20379;-85
2023/01/15 04:39:22;;;;;;;3.25;1.58;;;42.60;49.50;;;;;;5114096;28;20394;-86
2023/01/15 04:44:35;;;;;;;4.75;1.50;;;42.30;49.70;;;;;;5113826;28;20393;-85
2023/01/15 04:47:05;;;;;;;3.05;1.10;;;42.40;50.40;;;;;;5114376;28;20378;-87
2023/01/15 04:49:34;;;;;;;3.22;1.30;;;42.70;50.20;;;;;;5114102;28;20393;-83
2023/01/15 04:52:01;;;;;;;2.97;1.40;;;42.80;49.80;;;;;;5113620;28;20371;-86
2023/01/15 04:54:28;;;;;;;3.20;1.70;;;42.80;50.30;;;;;;5113541;27;20374;-88
2023/01/15 04:56:55;;;;;;;2.33;1.30;;;42.70;49.70;;;;;;5112430;28;20462;-84
2023/01/15 04:59:25;;;;;;;1.50;1.02;;;42.50;50.40;;;;;;5113310;28;20754;-86
2023/01/15 05:01:53;;;;;;;4.63;1.40;;;42.50;51.10;;;;;;5113586;28;20457;-85
2023/01/15 05:04:20;;;;;;;4.28;1.40;;;42.90;49.90;;;;;;5113156;28;20366;-84
2023/01/15 05:06:47;;;;;;;3.03;1.30;;;42.70;49.50;;;;;;5113640;28;20702;-86
2023/01/15 05:09:15;;;;;;;2.40;1.20;;;42.90;49.70;;;;;;5113710;28;20370;-87
2023/01/15 05:11:42;;;;;;;3.28;1.17;;;42.60;49.80;;;;;;5113237;28;20382;-86
2023/01/15 05:14:09;;;;;;;3.00;1.20;;;42.50;50.10;;;;;;5113163;28;20421;-86
2023/01/15 05:16:37;;;;;;;3.40;1.20;;;42.00;50.70;;;;;;5113133;28;20508;-85
2023/01/15 05:19:06;;;;;;;1.73;1.20;;;42.20;49.90;;;;;;5113000;28;20395;-85
2023/01/15 05:21:36;;;;;;;3.45;1.10;;;42.10;50.10;;;;;;5113011;27;20423;-84
2023/01/15 05:24:07;;;;;;;3.22;1.20;;;42.30;50.20;;;;;;5112962;28;20466;-85
2023/01/15 05:26:35;;;;;;;2.97;1.30;;;42.20;50.00;;;;;;5113341;28;20370;-81
2023/01/15 05:29:03;;;;;;;2.17;1.23;;;42.10;49.90;;;;;;5113183;28;20366;-85
2023/01/15 05:31:32;;;;;;;2.30;1.20;;;42.40;49.30;;;;;;5113003;28;20725;-86
2023/01/15 05:34:00;;;;;;;4.45;1.40;;;42.30;50.20;;;;;;5112908;28;20375;-86
2023/01/15 05:36:31;;;;;;;2.95;1.23;;;42.20;50.50;;;;;;5112897;28;20394;-85
2023/01/15 05:39:00;;;;;;;2.92;1.20;;;42.50;49.60;;;;;;5112732;28;20383;-86
2023/01/15 05:44:13;;;;;;;2.17;1.10;;;42.60;49.30;;;;;;5112661;28;20421;-87
2023/01/15 05:46:42;;;;;;;3.17;1.30;;;42.30;49.60;;;;;;5112593;28;20371;-83
2023/01/15 05:49:11;;;;;;;2.47;1.17;;;41.70;50.20;;;;;;5112604;28;20432;-81
2023/01/15 05:51:39;;;;;;;459.10;54.33;;;41.70;49.80;;;;;;5112678;28;20861;-85
2023/01/15 05:54:08;;;;;;;31.97;4.27;;;41.70;50.10;;;;;;5112700;28;20374;-85
2023/01/15 05:56:38;;;;;;;15.63;2.67;;;41.60;50.10;;;;;;5111141;28;20383;-85
2023/01/15 05:59:06;;;;;;;23.15;2.63;;;41.40;49.90;;;;;;5112529;28;20404;-87
2023/01/15 06:01:34;;;;;;;22.38;2.88;;;41.30;50.00;;;;;;5112430;28;20375;-86
2023/01/15 06:04:03;;;;;;;258.02;24.65;;;41.40;50.40;;;;;;5114540;28;20397;-86
2023/01/15 06:06:30;;;;;;;8.77;1.70;;;41.50;50.40;;;;;;5113186;28;20484;-86
2023/01/15 06:08:57;;;;;;;3.63;1.52;;;41.40;50.80;;;;;;5116735;27;20390;-88
2023/01/15 06:11:24;;;;;;;4.18;1.30;;;41.20;50.60;;;;;;5116689;28;20375;-88
2023/01/15 06:13:51;;;;;;;4.88;1.40;;;41.00;49.80;;;;;;5116668;27;20448;-87
2023/01/15 06:16:18;;;;;;;51.55;7.53;;;40.80;50.90;;;;;;5116476;28;20524;-87
2023/01/15 06:18:45;;;;;;;9.25;1.80;;;41.10;50.30;;;;;;5115034;28;20371;-87
2023/01/15 06:21:13;;;;;;;17.00;3.45;;;40.80;50.40;;;;;;5115133;28;20386;-86
2023/01/15 06:23:42;;;;;;;12.05;3.20;;;40.30;51.30;;;;;;5116373;28;20363;-81
2023/01/15 06:26:13;;;;;;;5.00;1.30;;;40.60;51.00;;;;;;5116540;28;20420;-87
2023/01/15 06:28:41;;;;;;;2.55;1.10;;;40.70;50.80;;;;;;5116218;28;20372;-86
2023/01/15 06:31:10;;;;;;;5.40;1.40;;;40.60;51.10;;;;;;5114994;28;20379;-81
2023/01/15 06:33:37;;;;;;;8.80;1.77;;;40.50;51.00;;;;;;5116765;28;20370;-85
2023/01/15 06:36:12;;;;;;;53.47;3.75;;;40.20;51.20;;;;;;5116737;28;20379;-87
2023/01/15 06:38:40;;;;;;;5.50;1.40;;;40.10;51.90;;;;;;5114865;28;20786;-87
2023/01/15 06:49:34;;;;;;;3.80;1.50;;;40.00;52.00;;;;;;5116806;28;20366;-83
2023/01/15 06:52:02;;;;;;;3.53;1.30;;;40.20;51.40;;;;;;5116317;28;20677;-87
2023/01/15 06:54:30;;;;;;;5.13;1.50;;;40.00;51.90;;;;;;5116025;28;20367;-87
2023/01/15 06:56:57;;;;;;;3.47;1.20;;;39.90;51.80;;;;;;5116090;28;20378;-81
2023/01/15 06:59:23;;;;;;;4.00;1.30;;;39.50;52.20;;;;;;5115986;28;20382;-86
2023/01/15 07:01:50;;;;;;;4.13;1.27;;;39.30;52.30;;;;;;5116376;28;20443;-86
2023/01/15 07:04:17;;;;;;;3.28;1.42;;;38.90;52.60;;;;;;5139330;28;20442;-82
2023/01/15 07:06:44;;;;;;;4.15;1.45;;;38.30;53.40;;;;;;5120216;28;20387;-82
2023/01/15 07:09:12;;;;;;;6.28;1.50;;;37.70;54.50;;;;;;5124295;28;20366;-90
2023/01/15 07:11:51;;;;;;;4.28;1.30;;;37.70;54.70;;;;;;5125920;28;20382;-90
2023/01/15 07:14:27;;;;;;;5.50;1.33;;;37.80;54.60;;;;;;5129689;28;20361;-87
2023/01/15 07:16:54;;;;;;;4.28;1.38;;;37.90;54.40;;;;;;5126241;28;20850;-85
2023/01/15 07:19:21;;;;;;;5.03;1.40;;;37.60;54.90;;;;;;5119789;28;20387;-86
2023/01/15 07:21:48;;;;;;;5.38;1.50;;;37.40;55.60;;;;;;5116276;28;20436;-85
2023/01/15 07:24:16;;;;;;;3.80;1.40;;;37.00;55.00;;;;;;5115664;28;20365;-86
2023/01/15 07:26:44;;;;;;;5.35;1.30;;;36.10;56.00;;;;;;5115875;28;20394;-87
2023/01/15 07:29:12;;;;;;;3.63;1.60;;;35.10;57.80;;;;;;5115695;28;20363;-85
2023/01/15 07:31:39;;;;;;;5.35;1.50;;;34.30;59.40;;;;;;5115718;27;20389;-86
2023/01/15 07:34:06;;;;;;;4.38;1.40;;;33.50;61.10;;;;;;5115337;28;20369;-87
2023/01/15 07:36:33;;;;;;;4.90;1.60;;;33.00;62.30;;;;;;5115130;28;20371;-86
2023/01/15 07:39:02;;;;;;;5.15;1.50;;;32.60;63.30;;;;;;5115057;28;20386;-85
2023/01/15 07:49:45;;;;;;;4.15;1.40;;;30.80;65.20;;;;;;5115282;28;20374;-87
2023/01/15 07:52:20;;;;;;;4.28;1.42;;;30.60;65.90;;;;;;5114658;28;20367;-88
2023/01/15 07:54:48;;;;;;;4.45;1.65;;;30.40;67.10;;;;;;5115004;28;20359;-88
2023/01/15 07:57:19;;;;;;;5.18;1.55;;;30.20;67.10;;;;;;5114753;28;20842;-86
2023/01/15 07:59:46;;;;;;;5.78;1.70;;;30.10;67.60;;;;;;5115398;27;20440;-88
2023/01/15 08:02:13;;;;;;;5.43;1.70;;;30.00;68.10;;;;;;5115082;27;20424;-91
2023/01/15 08:04:41;;;;;;;6.43;1.77;;;30.00;68.60;;;;;;5114721;28;20379;-86
2023/01/15 08:07:08;;;;;;;4.43;1.77;;;29.90;68.90;;;;;;5114811;27;20433;-85
2023/01/15 08:09:36;;;;;;;4.65;1.58;;;29.80;69.40;;;;;;5114537;28;20874;-86
2023/01/15 08:17:35;;;;;;;3.65;1.52;;;29.30;70.80;;;;;;5116438;28;20408;-88
2023/01/15 08:20:07;;;;;;;5.68;1.85;;;29.20;70.50;;;;;;5115299;28;20405;-88
2023/01/15 08:22:34;;;;;;;7.35;1.52;;;29.10;70.80;;;;;;5114266;28;20409;-88
2023/01/15 08:25:01;;;;;;;4.53;1.70;;;29.00;71.20;;;;;;5114239;28;20383;-90
2023/01/15 08:27:29;;;;;;;4.85;1.75;;;28.90;71.70;;;;;;5114020;28;20459;-87
2023/01/15 08:29:57;;;;;;;5.47;1.92;;;28.90;72.30;;;;;;5113697;28;20405;-88
2023/01/15 08:32:24;;;;;;;5.30;1.70;;;28.80;72.70;;;;;;5114040;28;20371;-86
2023/01/15 08:34:51;;;;;;;7.45;1.80;;;28.80;73.00;;;;;;5114838;27;20691;-85
2023/01/15 08:37:18;;;;;;;6.22;1.80;;;28.80;73.20;;;;;;5113839;28;20915;-87
2023/01/15 08:39:45;;;;;;;8.40;1.90;;;28.70;73.50;;;;;;5114048;28;20390;-86
2023/01/15 08:42:12;;;;;;;5.77;1.80;;;28.60;73.50;;;;;;5114003;28;20379;-90
2023/01/15 08:44:39;;;;;;;7.30;1.97;;;28.40;73.90;;;;;;5113881;28;20739;-96
2023/01/15 08:47:06;;;;;;;6.38;1.85;;;28.30;75.20;;;;;;5112598;28;20383;-90
2023/01/15 08:49:33;;;;;;;6.75;2.00;;;28.20;75.90;;;;;;5112444;28;20375;-89
2023/01/15 08:52:00;;;;;;;9.10;2.00;;;28.20;76.60;;;;;;5113804;28;20427;-88
2023/01/15 08:54:27;;;;;;;9.40;2.07;;;28.10;77.30;;;;;;5113504;28;20470;-88
2023/01/15 08:56:54;;;;;;;6.75;2.00;;;28.00;79.00;;;;;;5113574;28;20834;-87
2023/01/15 08:59:21;;;;;;;6.13;2.00;;;27.80;79.90;;;;;;5113337;28;20386;-87
2023/01/15 09:01:48;;;;;;;6.90;2.10;;;27.60;81.10;;;;;;5113707;28;20386;-78
2023/01/15 09:04:17;;;;;;;9.95;2.10;;;27.50;83.60;;;;;;5113404;28;20358;-82
2023/01/15 09:06:44;;;;;;;7.47;2.10;;;27.40;83.40;;;;;;5113425;28;20950;-81
2023/01/15 09:09:12;;;;;;;7.75;2.20;;;27.30;85.30;;;;;;5113838;28;20420;-82
2023/01/15 09:11:39;;;;;;;8.60;2.30;;;27.30;85.10;;;;;;5113434;28;20971;-83
2023/01/15 09:14:08;;;;;;;8.35;2.40;;;27.30;86.20;;;;;;5113564;28;20723;-84
2023/01/15 09:16:36;;;;;;;9.70;2.35;;;27.10;87.40;;;;;;5113546;28;20448;-84
2023/01/15 09:19:05;;;;;;;10.80;2.40;;;27.00;88.90;;;;;;5113190;28;22807;-84
2023/01/15 09:21:32;;;;;;;9.87;2.80;;;26.90;89.80;;;;;;5113184;28;20392;-81
2023/01/15 09:23:59;;;;;;;12.02;3.00;;;26.70;90.80;;;;;;5113135;28;20383;-82
2023/01/15 09:26:35;;;;;;;21.50;3.80;;;26.50;92.00;;;;;;5113259;28;20453;-80
2023/01/15 09:29:03;;;;;;;17.50;3.80;;;25.90;95.50;;;;;;5113632;28;20726;-82
2023/01/15 09:31:30;;;;;;;17.40;3.43;;;25.30;99.90;;;;;;5113296;28;20726;-89
2023/01/15 09:33:58;;;;;;;27.02;4.10;;;24.80;99.90;;;;;;5112215;28;20363;-89
2023/01/15 09:36:33;;;;;;;19.45;4.20;;;24.30;99.90;;;;;;5111792;28;20391;-83
2023/01/15 09:39:02;;;;;;;15.20;3.95;;;23.80;99.90;;;;;;5111441;28;20378;-86
2023/01/15 09:42:09;;;;;;;17.85;4.30;;;23.60;99.90;;;;;;5113613;28;20375;-80
2023/01/15 09:44:39;;;;;;;15.55;3.80;;;23.50;99.90;;;;;;5113239;28;20395;-87
2023/01/15 09:47:32;;;;;;;15.10;3.70;;;23.50;99.90;;;;;;5112805;28;20366;-84
2023/01/15 09:50:17;;;;;;;22.20;4.93;;;23.60;99.90;;;;;;5112832;28;20831;-86
2023/01/15 09:52:50;;;;;;;15.57;4.68;;;23.40;99.90;;;;;;5113242;28;20390;-90
2023/01/15 09:55:30;;;;;;;17.67;5.38;;;23.10;99.90;;;;;;5113303;28;20370;-87
2023/01/15 09:58:01;;;;;;;13.80;5.25;;;22.90;99.90;;;;;;5113204;28;20378;-87
2023/01/15 10:00:34;;;;;;;18.02;5.60;;;22.80;99.90;;;;;;5114125;28;20469;-89
2023/01/15 10:03:01;;;;;;;17.98;6.30;;;22.80;99.90;;;;;;5113288;28;20431;-89
2023/01/15 10:05:33;;;;;;;14.68;5.60;;;22.70;99.90;;;;;;5113288;28;20462;-87
2023/01/15 10:08:15;;;;;;;8.25;5.15;;;22.60;99.90;;;;;;5113414;28;20387;-89
2023/01/15 10:10:56;;;;;;;14.73;5.30;;;22.60;99.90;;;;;;5112817;28;20389;-87
2023/01/15 10:13:28;;;;;;;11.32;6.30;;;22.50;99.90;;;;;;5113786;28;20413;-88
2023/01/15 10:15:56;;;;;;;12.73;5.47;;;22.50;99.90;;;;;;5111591;28;20375;-87
2023/01/15 10:18:26;;;;;;;14.27;5.18;;;22.60;99.90;;;;;;5113952;28;20363;-87
2023/01/15 10:21:20;;;;;;;13.77;5.07;;;22.70;99.90;;;;;;5113029;28;20799;-89
2023/01/15 10:24:12;;;;;;;12.60;4.88;;;22.70;99.90;;;;;;5113349;28;20405;-86
2023/01/15 10:26:48;;;;;;;11.30;4.55;;;22.80;99.90;;;;;;5111570;28;20866;-89
2023/01/15 10:29:33;;;;;;;13.48;4.43;;;22.80;99.90;;;;;;5112991;28;20367;-89
2023/01/15 10:32:15;;;;;;;14.95;4.35;;;22.80;99.90;;;;;;5111207;28;20393;-86
2023/01/15 10:35:26;;;;;;;12.63;4.40;;;22.90;99.90;;;;;;5112488;28;20366;-87
2023/01/15 10:38:01;;;;;;;11.70;3.95;;;23.00;99.90;;;;;;5070150;28;20371;-87
2023/01/15 10:40:45;;;;;;;16.60;4.20;;;23.00;99.90;;;;;;5069897;28;20476;-86
2023/01/15 10:43:29;;;;;;;13.40;4.90;;;23.00;99.90;;;;;;5052669;28;20915;-88
2023/01/15 10:46:00;;;;;;;16.65;5.40;;;22.90;99.90;;;;;;5070296;28;20405;-89
2023/01/15 10:48:33;;;;;;;15.20;5.78;;;22.80;99.90;;;;;;5070519;28;20365;-89
2023/01/15 10:51:03;;;;;;;16.27;6.33;;;22.80;99.90;;;;;;5069798;28;20371;-89
2023/01/15 10:53:48;;;;;;;15.90;5.82;;;22.60;99.90;;;;;;5054387;28;20440;-91
2023/01/15 10:56:21;;;;;;;19.58;6.63;;;22.60;99.90;;;;;;5057243;28;20722;-92
2023/01/15 10:59:07;;;;;;;13.95;5.40;;;22.50;99.90;;;;;;5073972;28;20987;-93
2023/01/15 11:01:35;;;;;;;17.98;5.55;;;22.60;99.90;;;;;;5056665;28;20397;-89
2023/01/15 11:04:02;;;;;;;17.17;5.43;;;22.70;99.90;;;;;;5056624;28;20388;-91
2023/01/15 11:06:31;;;;;;;30.00;6.53;;;22.60;99.90;;;;;;5074140;28;20505;-90
2023/01/15 11:09:00;;;;;;;31.17;7.57;;;22.60;99.90;;;;;;5096389;28;20367;-90
2023/01/15 11:20:36;;;;;;;9.32;4.25;;;22.60;99.90;;;;;;5117756;28;20479;-89
2023/01/15 11:23:11;;;;;;;12.38;4.40;;;22.70;99.90;;;;;;5116035;28;20469;-88
2023/01/15 11:25:48;;;;;;;9.95;4.53;;;22.70;99.90;;;;;;5115920;27;20428;-90
2023/01/15 11:28:16;;;;;;;10.60;4.43;;;22.60;99.90;;;;;;5116164;28;20450;-88
2023/01/15 11:30:52;;;;;;;11.27;4.47;;;22.50;99.90;;;;;;5116693;28;20382;-88
2023/01/15 11:33:26;;;;;;;9.55;4.30;;;22.50;99.90;;;;;;5115366;27;20415;-88
2023/01/15 11:35:57;;;;;;;12.50;4.80;;;22.50;99.90;;;;;;5114141;28;20878;-87
2023/01/15 11:38:30;;;;;;;10.07;4.60;;;22.50;99.90;;;;;;5115593;28;20727;-88
2023/01/15 11:41:04;;;;;;;10.82;4.50;;;22.40;99.90;;;;;;5115283;28;20426;-88
2023/01/15 11:52:09;;;;;;;12.60;4.00;;;22.40;99.90;;;;;;5115557;28;20817;-89
2023/01/15 11:54:48;;;;;;;12.00;4.23;;;22.40;99.90;;;;;;5115024;27;20371;-88
2023/01/15 11:57:36;;;;;;;12.20;4.38;;;22.50;99.90;;;;;;5113591;28;20390;-89
2023/01/15 12:00:05;;;;;;;12.53;4.90;;;22.50;99.90;;;;;;5114986;28;20486;-88
2023/01/15 12:05:17;;;;;;;12.13;4.43;;;22.40;99.90;;;;;;5114201;28;20362;-87
2023/01/15 12:07:45;;;;;;;10.65;4.50;;;22.30;99.90;;;;;;5114843;27;20833;-88
2023/01/15 12:11:02;;;;;;;11.50;5.47;;;22.20;99.90;;;;;;5113297;28;20724;-87
2023/01/15 12:13:12;;;;;;;11.38;5.47;;;22.20;99.90;;;;;;5114217;28;20386;-89
2023/01/15 12:16:10;;;;;;;10.07;5.28;;;22.10;99.90;;;;;;5115069;28;20865;-90
2023/01/15 12:18:52;;;;;;;14.20;6.07;;;22.00;99.90;;;;;;5114876;27;20504;-87
2023/01/15 12:21:41;;;;;;;10.07;5.20;;;22.20;99.90;;;;;;5114819;28;20379;-89
2023/01/15 12:24:37;;;;;;;9.38;4.85;;;22.20;99.90;;;;;;5113254;28;20726;-87
2023/01/15 12:27:06;;;;;;;8.73;4.53;;;22.30;99.90;;;;;;5111338;28;20367;-85
2023/01/15 12:30:13;;;;;;;8.03;4.40;;;22.30;99.90;;;;;;5114218;28;20375;-85
2023/01/15 12:33:06;;;;;;;10.40;4.20;;;22.30;99.90;;;;;;5113393;28;20410;-87
2023/01/15 12:35:42;;;;;;;8.07;3.80;;;22.30;99.90;;;;;;5113614;28;20378;-87
2023/01/15 12:38:27;;;;;;;7.15;3.83;;;22.40;99.90;;;;;;5114181;28;20431;-87
2023/01/15 12:41:08;;;;;;;10.32;3.88;;;22.30;99.90;;;;;;5114301;28;20391;-87
2023/01/15 12:46:27;;;;;;;11.50;4.47;;;22.40;99.90;;;;;;5114100;28;20408;-87
2023/01/15 12:49:23;;;;;;;10.23;4.63;;;22.30;99.90;;;;;;5113750;28;20901;-87
2023/01/15 12:52:19;;;;;;;8.30;4.00;;;22.30;99.90;;;;;;5113638;28;20885;-87
2023/01/15 12:55:02;;;;;;;9.07;4.28;;;22.30;99.90;;;;;;5112196;28;20382;-87
2023/01/15 12:57:41;;;;;;;7.75;3.97;;;22.20;99.90;;;;;;5113584;28;20363;-87
2023/01/15 13:00:13;;;;;;;8.98;3.97;;;22.20;99.90;;;;;;5113906;28;20394;-86
2023/01/15 13:03:12;;;;;;;8.75;3.70;;;22.20;99.90;;;;;;5113816;28;20357;-88
2023/01/15 13:05:49;;;;;;;8.18;3.80;;;22.30;99.90;;;;;;5113666;28;20366;-86
2023/01/15 13:08:44;;;;;;;10.80;3.70;;;22.30;99.90;;;;;;5113358;28;20434;-86
2023/01/15 13:11:12;;;;;;;12.45;3.40;;;22.30;99.90;;;;;;5113455;28;20388;-86
2023/01/15 13:13:41;;;;;;;11.13;3.40;;;22.30;99.90;;;;;;5113205;28;20367;-87
2023/01/15 13:16:18;;;;;;;8.55;3.00;;;22.30;99.90;;;;;;5112710;28;20401;-86
2023/01/15 13:19:08;;;;;;;13.93;3.25;;;22.30;99.90;;;;;;5111750;28;20746;-87
2023/01/15 13:21:39;;;;;;;11.95;3.10;;;22.30;99.90;;;;;;5113081;28;20393;-86
2023/01/15 13:24:22;;;;;;;13.27;3.00;;;22.30;99.90;;;;;;5113125;28;20449;-88
2023/01/15 13:27:06;;;;;;;10.47;3.07;;;22.20;99.90;;;;;;5113366;28;20367;-86
2023/01/15 13:29:39;;;;;;;10.27;3.10;;;22.20;99.90;;;;;;5113233;28;20370;-88
2023/01/15 13:32:20;;;;;;;13.57;3.20;;;22.20;99.90;;;;;;5113357;28;20458;-86
2023/01/15 13:34:54;;;;;;;12.13;2.83;;;22.10;99.90;;;;;;5113038;28;20441;-86
2023/01/15 13:37:29;;;;;;;11.10;2.83;;;22.10;99.90;;;;;;5113148;28;20474;-85
2023/01/15 13:40:02;;;;;;;14.02;3.20;;;22.00;99.90;;;;;;5112775;28;20387;-86
2023/01/15 13:42:31;;;;;;;11.77;3.05;;;22.00;99.90;;;;;;5112893;28;20367;-87
2023/01/15 13:45:41;;;;;;;11.82;3.00;;;21.90;99.90;;;;;;5092676;28;20372;-88
2023/01/15 13:48:31;;;;;;;12.45;2.80;;;21.90;99.90;;;;;;5010820;28;20422;-87
2023/01/15 13:51:00;;;;;;;11.30;2.83;;;21.90;99.90;;;;;;5011209;28;20376;-87
2023/01/15 13:53:39;;;;;;;11.60;2.80;;;21.90;99.90;;;;;;5010954;28;20398;-87
2023/01/15 13:56:11;;;;;;;12.33;2.77;;;21.90;99.90;;;;;;5010527;28;20411;-88
2023/01/15 13:58:41;;;;;;;12.73;2.80;;;21.80;99.90;;;;;;5010691;28;20405;-88
2023/01/15 14:01:24;;;;;;;13.63;2.95;;;21.90;99.90;;;;;;5010717;28;20407;-87
2023/01/15 14:04:05;;;;;;;14.25;2.70;;;21.80;99.90;;;;;;5010254;28;20384;-87
2023/01/15 14:06:37;;;;;;;10.83;2.40;;;21.80;99.90;;;;;;5010182;28;20777;-86
2023/01/15 14:09:04;;;;;;;15.13;2.97;;;21.80;99.90;;;;;;5010382;28;20952;-86